Time;durP1;ratioP1;P1;durP2;ratioP2;P2;SDS_P1;SDS_P2;PMS_P1;PMS_P2;Temp;Humidity;BMP_temperature;BMP_pressure;BME280_temperature;BME280_humidity;BME280_pressure;Samples;Min_cycle;Max_cycle;Signal;HPM_P1;HPM_P2
2022/01/11 00:01:20;;;;;;;23.63;11.38;;;;;;;0.95;95.08;96697.34;4819772;29;20425;-43
2022/01/11 00:03:48;;;;;;;21.70;11.18;;;;;;;1.27;94.29;96686.66;4821327;29;20046;-45
2022/01/11 00:08:50;;;;;;;21.05;11.20;;;;;;;1.13;94.21;96686.28;4813536;29;20049;-44
2022/01/11 00:11:17;;;;;;;18.20;10.93;;;;;;;1.01;95.02;96677.66;4821049;29;20824;-44
2022/01/11 00:13:47;;;;;;;22.92;11.73;;;;;;;0.69;95.95;96689.88;4820792;29;20058;-43
2022/01/11 00:16:14;;;;;;;18.45;10.55;;;;;;;1.38;94.27;96691.84;4821790;29;20081;-44
2022/01/11 00:18:41;;;;;;;21.55;12.18;;;;;;;1.79;90.77;96696.69;4808725;29;20054;-46
2022/01/11 00:21:08;;;;;;;21.50;10.98;;;;;;;0.80;94.86;96696.09;4821585;29;20053;-43
2022/01/11 00:26:03;;;;;;;19.40;10.75;;;;;;;1.43;92.30;96701.75;4820999;29;20061;-41
2022/01/11 00:28:30;;;;;;;20.08;10.95;;;;;;;0.95;93.75;96700.81;4822404;29;20133;-47
2022/01/11 00:31:11;;;;;;;22.70;10.50;;;;;;;0.60;96.20;96704.69;4817960;29;20174;-40
2022/01/11 00:33:43;;;;;;;23.73;11.20;;;;;;;0.67;97.25;96713.28;4806062;29;20705;-46
2022/01/11 00:36:11;;;;;;;19.65;10.85;;;;;;;0.41;97.70;96716.72;4821991;29;20081;-48
2022/01/11 00:38:40;;;;;;;21.30;10.98;;;;;;;0.51;97.38;96722.16;4805400;29;20054;-43
2022/01/11 00:41:10;;;;;;;20.30;10.50;;;;;;;0.40;98.00;96721.25;4815751;29;20043;-47
2022/01/11 00:43:40;;;;;;;22.05;10.82;;;;;;;0.53;97.60;96714.75;4821288;29;20042;-46
2022/01/11 00:46:07;;;;;;;20.30;11.88;;;;;;;0.60;98.17;96712.69;4822740;29;20468;-44
2022/01/11 00:48:39;;;;;;;21.25;11.93;;;;;;;0.82;96.53;96723.31;4820660;29;20043;-50
2022/01/11 00:51:09;;;;;;;24.98;12.73;;;;;;;1.30;93.97;96731.47;4822943;29;20468;-46
2022/01/11 00:53:38;;;;;;;22.95;11.98;;;;;;;1.65;91.77;96730.97;4812802;29;20042;-47
2022/01/11 00:56:05;;;;;;;22.40;12.13;;;;;;;1.58;91.15;96733.88;4823627;29;20046;-47
2022/01/11 00:58:32;;;;;;;20.80;11.93;;;;;;;1.94;89.17;96739.44;4825374;29;20046;-42
2022/01/11 01:00:59;;;;;;;20.77;11.52;;;;;;;1.41;91.43;96735.88;4820702;29;20062;-44
2022/01/11 01:03:26;;;;;;;26.00;11.80;;;;;;;1.53;92.34;96741.84;4823648;29;20432;-50
2022/01/11 01:05:54;;;;;;;23.50;11.63;;;;;;;0.63;95.73;96748.66;4824470;29;20416;-44
2022/01/11 01:08:22;;;;;;;23.60;11.35;;;;;;;1.26;94.53;96743.72;4823698;29;20046;-48
2022/01/11 01:10:50;;;;;;;24.08;11.48;;;;;;;1.70;91.46;96743.56;4821893;29;20054;-44
2022/01/11 01:13:23;;;;;;;22.63;11.75;;;;;;;1.38;92.60;96747.03;4823914;29;20077;-44
2022/01/11 01:15:56;;;;;;;19.85;11.30;;;;;;;0.84;95.00;96747.03;4823916;29;20046;-45
2022/01/11 01:18:53;;;;;;;22.65;11.55;;;;;;;1.09;93.84;96739.31;4817732;29;20081;-41
2022/01/11 01:21:20;;;;;;;23.58;11.60;;;;;;;1.03;95.17;96750.97;4821860;29;20053;-48
2022/01/11 01:23:48;;;;;;;23.13;11.18;;;;;;;1.80;90.21;96754.31;4812589;29;20054;-45
2022/01/11 01:26:17;;;;;;;26.13;12.63;;;;;;;1.92;88.84;96744.25;4823376;29;20115;-48
2022/01/11 01:28:47;;;;;;;22.45;11.27;;;;;;;1.76;90.04;96747.88;4823549;29;20431;-47
2022/01/11 01:31:15;;;;;;;20.88;10.55;;;;;;;1.91;88.54;96753.31;4821199;29;20057;-45
2022/01/11 01:33:42;;;;;;;20.15;11.10;;;;;;;1.75;89.47;96748.94;4824630;29;20046;-46
2022/01/11 01:36:11;;;;;;;21.88;12.35;;;;;;;1.98;88.27;96759.25;4823379;29;20078;-46
2022/01/11 01:38:40;;;;;;;22.00;11.50;;;;;;;1.58;90.03;96749.88;4823657;29;20156;-47
2022/01/11 01:41:16;;;;;;;22.13;11.43;;;;;;;1.66;89.98;96747.78;4821704;29;20051;-46
2022/01/11 01:43:45;;;;;;;22.10;11.98;;;;;;;2.07;87.99;96757.69;4824304;29;20043;-48
2022/01/11 01:46:13;;;;;;;21.77;10.80;;;;;;;1.62;90.30;96761.63;4823505;29;20057;-46
2022/01/11 01:48:41;;;;;;;22.23;12.43;;;;;;;1.57;89.83;96753.59;4823274;29;20145;-44
2022/01/11 01:51:10;;;;;;;20.05;11.25;;;;;;;1.43;91.56;96751.59;4819395;29;20053;-46
2022/01/11 01:53:43;;;;;;;24.13;11.65;;;;;;;1.76;89.20;96747.88;4811048;29;20050;-45
2022/01/11 01:56:11;;;;;;;21.80;11.20;;;;;;;1.70;89.03;96754.25;4823699;29;20421;-49
2022/01/11 01:58:38;;;;;;;24.85;12.70;;;;;;;1.11;92.03;96755.06;4822724;29;20103;-46
2022/01/11 02:01:06;;;;;;;24.05;12.18;;;;;;;1.81;89.47;96756.72;4821381;29;20536;-47
2022/01/11 02:03:39;;;;;;;22.27;12.13;;;;;;;1.24;92.76;96759.19;4823221;29;20061;-44
2022/01/11 02:06:12;;;;;;;24.02;11.80;;;;;;;1.85;89.49;96762.34;4822776;29;20047;-45
2022/01/11 02:08:39;;;;;;;23.42;11.88;;;;;;;2.08;88.22;96764.66;4823316;29;20115;-48
2022/01/11 02:11:07;;;;;;;25.85;12.32;;;;;;;1.78;88.51;96767.91;4805598;29;20054;-44
2022/01/11 02:13:34;;;;;;;18.75;10.80;;;;;;;1.78;89.33;96767.09;4822646;29;20074;-44
2022/01/11 02:16:04;;;;;;;19.02;10.50;;;;;;;1.36;90.71;96760.59;4822939;29;20043;-44
2022/01/11 02:18:32;;;;;;;21.05;11.95;;;;;;;1.76;90.19;96764.69;4822469;29;20117;-46
2022/01/11 02:21:05;;;;;;;;;;;;;;;2.20;87.46;96775.13;4822409;29;20382;-41
2022/01/11 02:23:34;;;;;;;22.77;11.55;;;;;;;2.16;87.38;96767.91;4831680;29;19924;-43
2022/01/11 02:26:02;;;;;;;21.10;10.93;;;;;;;2.09;87.23;96776.13;4822845;29;20373;-40
2022/01/11 02:28:31;;;;;;;20.55;11.57;;;;;;;1.82;88.76;96779.69;4822323;29;20077;-41
2022/01/11 02:31:00;;;;;;;23.50;11.77;;;;;;;1.96;87.52;96776.56;4820480;29;20070;-47
2022/01/11 02:33:34;;;;;;;27.35;12.70;;;;;;;1.85;88.78;96770.34;4820907;29;20045;-48
2022/01/11 02:36:19;;;;;;;24.15;12.10;;;;;;;1.80;89.14;96776.47;4822232;29;20078;-41
2022/01/11 02:38:48;;;;;;;22.52;12.38;;;;;;;2.15;87.12;96771.63;4822499;29;20111;-41
2022/01/11 02:41:15;;;;;;;25.02;12.88;;;;;;;2.16;86.68;96767.91;4817531;29;20080;-46
2022/01/11 02:43:43;;;;;;;22.67;11.40;;;;;;;1.92;88.41;96778.97;4821696;29;20095;-44
2022/01/11 02:46:10;;;;;;;27.33;12.55;;;;;;;2.07;87.54;96771.03;4823251;29;20108;-45
2022/01/11 02:48:37;;;;;;;23.67;11.75;;;;;;;1.94;87.57;96771.47;4822343;29;20137;-49
2022/01/11 02:51:05;;;;;;;27.35;12.70;;;;;;;1.94;87.66;96774.16;4806491;29;20600;-43
2022/01/11 02:53:44;;;;;;;22.13;11.32;;;;;;;0.99;92.13;96775.72;4806131;29;20054;-42
2022/01/11 02:56:12;;;;;;;23.50;11.75;;;;;;;1.56;90.19;96778.69;4822151;29;20473;-47
2022/01/11 02:58:39;;;;;;;26.05;13.00;;;;;;;1.86;88.19;96779.97;4822148;29;20127;-46
2022/01/11 03:01:09;;;;;;;24.27;12.35;;;;;;;1.74;88.33;96782.00;4820854;29;20557;-43
2022/01/11 03:03:37;;;;;;;23.20;11.75;;;;;;;1.62;89.84;96780.31;4822118;29;20095;-44
2022/01/11 03:06:06;;;;;;;21.90;12.25;;;;;;;1.52;89.13;96768.75;4821726;29;20493;-42
2022/01/11 03:08:43;;;;;;;23.65;11.90;;;;;;;1.84;88.44;96787.41;4821112;29;20042;-48
2022/01/11 03:11:16;;;;;;;23.55;11.07;;;;;;;1.85;87.84;96783.69;4805935;29;20055;-44
2022/01/11 03:13:46;;;;;;;21.30;11.70;;;;;;;1.96;87.38;96788.06;4821565;29;20073;-45
2022/01/11 03:16:15;;;;;;;24.05;11.55;;;;;;;1.92;87.86;96781.63;4811787;29;20039;-43
2022/01/11 03:18:44;;;;;;;24.80;12.35;;;;;;;1.90;87.43;96786.41;4821828;29;20062;-42
2022/01/11 03:21:11;;;;;;;25.27;12.40;;;;;;;1.78;88.18;96796.44;4820782;29;20050;-42
2022/01/11 03:23:39;;;;;;;19.98;11.75;;;;;;;1.44;89.95;96794.03;4821363;29;20051;-42
2022/01/11 03:26:06;;;;;;;24.25;11.98;;;;;;;1.72;88.43;96789.44;4822872;29;20046;-43
2022/01/11 03:28:35;;;;;;;24.80;11.63;;;;;;;1.79;88.14;96790.88;4821832;29;20129;-42
2022/01/11 03:31:03;;;;;;;23.55;11.70;;;;;;;1.83;87.39;96783.94;4813372;29;20156;-45
2022/01/11 03:33:40;;;;;;;21.90;11.70;;;;;;;2.00;86.84;96788.34;4821755;29;20418;-41
2022/01/11 03:36:07;;;;;;;21.60;11.30;;;;;;;1.84;87.92;96793.56;4820021;29;20371;-46
2022/01/11 03:38:35;;;;;;;22.60;11.65;;;;;;;1.51;89.65;96794.63;4805439;29;20058;-41
2022/01/11 03:41:07;;;;;;;21.73;11.02;;;;;;;1.97;87.27;96786.97;4820875;29;20465;-42
2022/01/11 03:43:34;;;;;;;25.80;11.30;;;;;;;1.63;88.00;96789.94;4821263;29;20047;-48
2022/01/11 03:46:01;;;;;;;23.13;12.05;;;;;;;1.98;86.59;96793.13;4822682;29;20056;-45
2022/01/11 03:48:28;;;;;;;24.00;11.98;;;;;;;2.17;85.94;96798.88;4821086;29;20091;-42
2022/01/11 03:50:56;;;;;;;20.65;11.27;;;;;;;2.16;85.80;96789.25;4820610;29;20144;-42
2022/01/11 03:54:01;;;;;;;22.10;11.07;;;;;;;2.13;86.02;96795.09;4822164;29;20054;-44
2022/01/11 03:56:29;;;;;;;21.13;10.80;;;;;;;1.58;87.80;96791.75;4815548;29;20079;-42
2022/01/11 03:59:06;;;;;;;19.90;10.77;;;;;;;1.91;87.16;96804.00;4819597;29;20054;-42
2022/01/11 04:01:35;;;;;;;21.08;11.07;;;;;;;2.06;86.35;96798.78;4815382;29;20046;-45
2022/01/11 04:04:04;;;;;;;24.92;11.98;;;;;;;2.13;85.67;96803.91;4820906;29;20058;-45
2022/01/11 04:06:32;;;;;;;20.42;10.40;;;;;;;1.91;86.20;96798.69;4821277;29;20050;-46
2022/01/11 04:08:59;;;;;;;25.90;11.60;;;;;;;2.03;85.98;96801.97;4817416;29;20054;-47
2022/01/11 04:11:27;;;;;;;23.25;12.15;;;;;;;2.05;85.82;96794.53;4820305;29;20209;-42
2022/01/11 04:13:55;;;;;;;20.35;11.50;;;;;;;2.09;85.68;96795.63;4821356;29;20050;-43
2022/01/11 04:16:24;;;;;;;22.88;12.35;;;;;;;2.04;86.04;96802.78;4820333;29;20143;-45
2022/01/11 04:18:52;;;;;;;23.35;12.88;;;;;;;1.64;88.27;96799.53;4814906;29;20042;-46
2022/01/11 04:21:19;;;;;;;25.02;12.35;;;;;;;1.97;86.20;96792.31;4822510;29;20057;-45
2022/01/11 04:23:49;;;;;;;24.42;12.85;;;;;;;2.04;86.18;96803.56;4808472;29;20062;-42
2022/01/11 04:26:16;;;;;;;23.40;12.20;;;;;;;2.11;85.54;96798.00;4825530;29;20039;-42
2022/01/11 04:28:44;;;;;;;25.38;13.02;;;;;;;1.44;89.21;96802.03;4824752;29;20055;-45
2022/01/11 04:31:11;;;;;;;23.05;12.25;;;;;;;1.73;87.59;96796.41;4823634;29;20588;-44
2022/01/11 04:33:43;;;;;;;21.30;11.60;;;;;;;1.54;89.12;96799.44;4824280;29;20674;-47
2022/01/11 04:36:12;;;;;;;24.15;12.35;;;;;;;1.81;87.68;96798.59;4823883;29;20050;-46
2022/01/11 04:38:39;;;;;;;24.70;12.50;;;;;;;1.95;86.53;96807.81;4823726;29;20034;-47
2022/01/11 04:41:07;;;;;;;25.77;11.73;;;;;;;1.94;86.29;96803.50;4823819;29;20042;-46
2022/01/11 04:43:40;;;;;;;;;;;;;;;2.01;86.01;96809.44;4810281;29;20153;-46
2022/01/11 04:46:08;;;;;;;21.15;11.70;;;;;;;1.88;86.75;96815.19;4823845;29;20375;-44
2022/01/11 04:48:36;;;;;;;24.40;11.15;;;;;;;1.60;88.54;96817.13;4822689;29;20047;-45
2022/01/11 04:51:05;;;;;;;24.50;11.70;;;;;;;2.01;86.77;96820.09;4823819;29;20046;-44
2022/01/11 04:53:32;;;;;;;26.08;12.20;;;;;;;2.01;86.62;96829.97;4822935;29;20086;-41
2022/01/11 04:56:00;;;;;;;25.77;12.15;;;;;;;2.03;86.35;96822.53;4824120;29;20058;-42
2022/01/11 04:58:28;;;;;;;22.77;12.07;;;;;;;1.83;87.39;96823.97;4823798;29;20101;-46
2022/01/11 05:00:55;;;;;;;26.55;12.55;;;;;;;1.73;87.67;96821.22;4821629;29;20126;-43
2022/01/11 05:03:22;;;;;;;25.15;12.32;;;;;;;1.45;89.51;96824.97;4808522;29;20050;-41
2022/01/11 05:05:54;;;;;;;26.13;12.77;;;;;;;1.78;87.68;96828.47;4824286;29;20434;-43
2022/01/11 05:08:21;;;;;;;27.48;13.02;;;;;;;1.63;87.68;96826.47;4823792;29;20039;-43
2022/01/11 05:10:48;;;;;;;25.60;13.07;;;;;;;1.35;89.29;96832.84;4820729;29;20080;-45
2022/01/11 05:13:18;;;;;;;26.23;13.18;;;;;;;1.63;88.53;96824.59;4820894;24;20077;-49
2022/01/11 05:15:46;;;;;;;24.95;12.60;;;;;;;1.79;87.48;96838.91;4826526;29;20229;-46
2022/01/11 05:18:14;;;;;;;25.95;12.35;;;;;;;1.83;86.97;96837.31;4838727;29;20385;-46
2022/01/11 05:20:42;;;;;;;33.60;13.93;;;;;;;1.74;87.42;96832.69;4840640;29;20046;-50
2022/01/11 05:23:13;;;;;;;28.98;13.25;;;;;;;1.75;87.67;96836.97;4838209;29;20054;-48
2022/01/11 05:25:41;;;;;;;26.27;14.10;;;;;;;1.66;88.17;96844.66;4856691;29;20077;-49
2022/01/11 05:28:08;;;;;;;21.67;11.75;;;;;;;1.71;87.39;96835.88;4831753;29;20056;-47
2022/01/11 05:30:35;;;;;;;24.40;13.75;;;;;;;1.62;88.06;96844.31;4830485;29;20054;-47
2022/01/11 05:33:02;;;;;;;26.17;12.50;;;;;;;1.52;88.15;96848.75;4823170;29;20581;-44
2022/01/11 05:35:30;;;;;;;26.95;13.02;;;;;;;1.57;87.79;96846.94;4824617;29;20442;-48
2022/01/11 05:37:57;;;;;;;27.58;13.15;;;;;;;1.69;87.57;96846.81;4841895;29;20125;-45
2022/01/11 05:40:25;;;;;;;30.25;13.70;;;;;;;1.57;88.06;96851.50;4836282;29;20136;-50
2022/01/11 05:42:57;;;;;;;24.63;12.77;;;;;;;1.53;88.28;96845.84;4838115;29;20046;-52
2022/01/11 05:45:24;;;;;;;25.70;13.88;;;;;;;1.56;88.21;96849.84;4825354;29;20117;-44
2022/01/11 05:47:52;;;;;;;31.33;14.18;;;;;;;1.58;87.79;96853.88;4825575;29;20046;-46
2022/01/11 05:50:22;;;;;;;27.02;12.85;;;;;;;1.59;87.66;96860.84;4827782;29;20050;-48
2022/01/11 05:52:51;;;;;;;28.08;13.73;;;;;;;1.65;87.94;96867.03;4841693;29;20050;-48
2022/01/11 05:55:19;;;;;;;27.83;14.32;;;;;;;1.80;87.05;96863.72;4826794;29;20038;-45
2022/01/11 05:57:46;;;;;;;31.95;13.90;;;;;;;1.53;87.98;96861.84;4831702;29;20070;-46
2022/01/11 06:00:20;;;;;;;26.33;14.23;;;;;;;1.70;87.98;96871.63;4830650;29;20054;-45
2022/01/11 06:02:54;;;;;;;27.13;12.77;;;;;;;1.63;88.38;96874.50;4830786;29;20042;-48
2022/01/11 06:05:34;;;;;;;29.52;13.52;;;;;;;1.29;89.81;96879.19;4830530;29;20050;-44
2022/01/11 06:08:03;;;;;;;28.17;13.93;;;;;;;1.64;88.06;96879.56;4828694;29;20412;-45
2022/01/11 06:10:30;;;;;;;25.23;13.25;;;;;;;1.55;88.95;96878.41;4838322;29;20595;-47
2022/01/11 06:12:58;;;;;;;29.55;13.85;;;;;;;1.62;88.65;96880.84;4822155;29;20066;-49
2022/01/11 06:15:29;;;;;;;27.13;14.15;;;;;;;1.58;88.64;96883.22;4840854;29;20133;-44
2022/01/11 06:17:58;;;;;;;30.05;13.13;;;;;;;1.60;88.52;96878.47;4837759;29;20073;-45
2022/01/11 06:20:25;;;;;;;30.55;13.40;;;;;;;1.77;87.98;96886.34;4837070;29;20081;-46
2022/01/11 06:22:53;;;;;;;26.02;13.02;;;;;;;1.89;87.30;96891.56;4823056;29;20447;-47
2022/01/11 06:25:20;;;;;;;25.63;13.15;;;;;;;1.60;87.97;96889.13;4837578;29;20124;-46
2022/01/11 06:27:48;;;;;;;26.23;13.40;;;;;;;1.94;86.90;96891.56;4837844;29;20106;-45
2022/01/11 06:30:17;;;;;;;26.95;13.07;;;;;;;1.61;88.38;96904.06;4831551;29;20050;-48
2022/01/11 06:32:45;;;;;;;29.63;14.50;;;;;;;1.86;87.39;96895.53;4830804;29;20042;-47
2022/01/11 06:35:15;;;;;;;35.15;14.45;;;;;;;2.00;86.64;96905.78;4837825;29;20144;-49
2022/01/11 06:37:46;;;;;;;33.45;14.48;;;;;;;2.07;86.01;96909.03;4840807;29;20099;-48
2022/01/11 06:40:16;;;;;;;27.27;13.25;;;;;;;2.00;86.35;96906.59;4824433;29;20046;-48
2022/01/11 06:42:47;;;;;;;30.08;12.73;;;;;;;1.43;88.90;96907.09;4806035;29;20565;-51
2022/01/11 06:45:15;;;;;;;28.85;13.23;;;;;;;1.96;87.06;96907.34;4838568;29;20085;-50
2022/01/11 06:47:43;;;;;;;28.17;13.98;;;;;;;2.06;86.42;96910.91;4830682;29;20522;-52
2022/01/11 06:50:12;;;;;;;27.05;13.77;;;;;;;2.06;85.95;96913.59;4822587;29;20442;-47
2022/01/11 06:52:40;;;;;;;30.05;14.23;;;;;;;2.15;85.03;96918.47;4829012;29;20556;-47
2022/01/11 06:55:09;;;;;;;28.45;12.85;;;;;;;1.84;86.22;96915.50;4839232;29;20098;-49
2022/01/11 06:57:36;;;;;;;24.23;12.73;;;;;;;1.66;87.59;96926.50;4827272;29;20046;-51
2022/01/11 07:00:08;;;;;;;23.60;11.88;;;;;;;1.42;88.77;96926.78;4839889;29;20050;-50
2022/01/11 07:02:38;;;;;;;26.23;12.75;;;;;;;1.83;86.70;96924.56;4838933;29;20102;-51
2022/01/11 07:05:37;;;;;;;25.42;13.43;;;;;;;2.02;85.40;96931.16;4830295;29;20481;-49
2022/01/11 07:08:05;;;;;;;27.52;13.95;;;;;;;2.04;85.19;96934.38;4823679;29;20046;-46
2022/01/11 07:10:33;;;;;;;28.13;13.57;;;;;;;2.21;84.83;96941.47;4821956;29;20054;-50
2022/01/11 07:13:02;;;;;;;25.75;14.35;;;;;;;1.99;85.07;96939.69;4821303;29;20149;-51
2022/01/11 07:15:30;;;;;;;27.90;14.30;;;;;;;1.99;85.88;96947.69;4808037;29;20054;-47
2022/01/11 07:18:04;;;;;;;28.42;14.77;;;;;;;2.08;85.34;96954.19;4822144;29;20046;-46
2022/01/11 07:20:30;;;;;;;27.58;13.88;;;;;;;2.00;85.76;96961.84;4822983;29;20089;-47
2022/01/11 07:22:57;;;;;;;26.38;14.07;;;;;;;1.80;86.26;96965.91;4830811;29;20129;-45
2022/01/11 07:25:26;;;;;;;27.67;12.65;;;;;;;1.76;86.38;96956.78;4822565;29;20054;-50
2022/01/11 07:27:55;;;;;;;25.55;13.02;;;;;;;1.72;87.04;96965.53;4838664;29;20042;-46
2022/01/11 07:30:22;;;;;;;29.15;14.30;;;;;;;1.93;85.92;96961.22;4840917;29;20145;-48
2022/01/11 07:32:50;;;;;;;25.48;13.57;;;;;;;1.94;85.35;96963.63;4839495;29;20052;-46
2022/01/11 07:35:18;;;;;;;25.27;13.35;;;;;;;1.90;85.55;96965.19;4840075;29;20098;-46
2022/01/11 07:37:45;;;;;;;25.13;12.52;;;;;;;1.98;85.16;96967.44;4822828;29;20069;-44
2022/01/11 07:40:13;;;;;;;24.40;12.52;;;;;;;2.06;84.62;96971.50;4828086;29;20177;-50
2022/01/11 07:42:44;;;;;;;24.10;12.93;;;;;;;2.05;84.74;96960.03;4837177;29;20141;-44
2022/01/11 07:45:29;;;;;;;27.00;13.00;;;;;;;2.13;84.38;96976.63;4826022;29;20684;-45
2022/01/11 07:47:58;;;;;;;26.15;13.10;;;;;;;1.90;85.25;96969.75;4825094;29;20564;-47
2022/01/11 07:50:25;;;;;;;25.42;13.25;;;;;;;1.85;85.65;96978.47;4822930;29;20050;-46
2022/01/11 07:52:52;;;;;;;22.83;11.90;;;;;;;1.06;88.92;96979.66;4829342;29;20050;-45
2022/01/11 07:55:21;;;;;;;23.15;12.00;;;;;;;1.47;88.21;96969.53;4831104;29;20070;-46
2022/01/11 07:57:48;;;;;;;22.88;12.43;;;;;;;1.05;88.80;96972.72;4836794;29;20048;-48
2022/01/11 08:00:15;;;;;;;23.83;12.07;;;;;;;1.80;86.37;96981.13;4832689;29;20049;-45
2022/01/11 08:02:42;;;;;;;22.20;11.60;;;;;;;1.00;89.17;96980.63;4820942;29;20050;-49
2022/01/11 08:05:23;;;;;;;22.00;12.05;;;;;;;1.90;85.94;96986.56;4836983;29;20125;-48
2022/01/11 08:07:51;;;;;;;20.45;11.43;;;;;;;1.48;87.54;96981.81;4806795;29;20054;-47
2022/01/11 08:10:24;;;;;;;20.83;11.43;;;;;;;1.68;86.58;96975.91;4835481;29;20047;-46
2022/01/11 08:12:52;;;;;;;21.00;11.73;;;;;;;1.00;88.03;96977.97;4821244;29;20054;-45
2022/01/11 08:15:20;;;;;;;23.52;12.48;;;;;;;0.87;90.55;96973.78;4821955;29;20042;-49
2022/01/11 08:17:49;;;;;;;27.05;12.38;;;;;;;1.82;86.95;96982.47;4806369;29;20046;-46
2022/01/11 08:20:18;;;;;;;22.10;12.30;;;;;;;2.17;85.01;96978.53;4837585;29;20115;-46
2022/01/11 08:22:48;;;;;;;23.13;11.82;;;;;;;1.25;87.75;96982.03;4829172;29;20497;-46
2022/01/11 08:25:16;;;;;;;23.23;12.93;;;;;;;2.05;86.16;96976.03;4821941;29;20046;-48
2022/01/11 08:27:43;;;;;;;24.55;12.32;;;;;;;2.23;84.37;96976.72;4821989;29;20047;-46
2022/01/11 08:30:11;;;;;;;25.45;13.35;;;;;;;1.70;87.62;96979.13;4837398;29;20054;-46
2022/01/11 08:32:45;;;;;;;23.48;13.32;;;;;;;2.28;84.64;96977.59;4854498;29;20065;-47
2022/01/11 08:35:12;;;;;;;24.95;13.45;;;;;;;1.96;85.14;96982.88;4839954;29;20053;-46
2022/01/11 08:37:39;;;;;;;22.38;11.55;;;;;;;1.12;87.92;96981.34;4839518;29;20046;-50
2022/01/11 08:40:06;;;;;;;23.83;12.60;;;;;;;1.17;89.15;96985.94;4834497;29;20145;-45
2022/01/11 08:42:34;;;;;;;24.13;11.75;;;;;;;1.98;86.81;96982.63;4835662;29;20047;-47
2022/01/11 08:45:03;;;;;;;23.80;11.85;;;;;;;2.19;85.03;96981.78;4823928;29;20124;-46
2022/01/11 08:47:34;;;;;;;20.83;12.43;;;;;;;1.70;87.04;96994.34;4839522;29;20038;-46
2022/01/11 08:50:06;;;;;;;23.73;12.35;;;;;;;2.00;86.02;97000.00;4837817;29;20114;-48
2022/01/11 08:52:39;;;;;;;21.83;12.35;;;;;;;2.17;85.01;97010.56;4835346;29;20073;-47
2022/01/11 08:55:07;;;;;;;25.55;13.52;;;;;;;1.94;85.47;97006.34;4821433;29;20573;-49
2022/01/11 08:57:35;;;;;;;28.08;13.68;;;;;;;1.77;87.43;97013.63;4821241;29;20129;-46
2022/01/11 09:00:10;;;;;;;24.67;14.23;;;;;;;2.24;85.08;97019.22;4831859;29;20052;-47
2022/01/11 09:02:38;;;;;;;29.25;14.18;;;;;;;2.28;84.79;97014.97;4820249;29;20051;-49
2022/01/11 09:05:06;;;;;;;28.40;14.80;;;;;;;2.48;83.87;97018.91;4833524;29;20058;-45
2022/01/11 09:07:35;;;;;;;25.98;13.82;;;;;;;2.40;83.51;97020.16;4809622;29;20504;-47
2022/01/11 09:10:05;;;;;;;29.10;15.40;;;;;;;2.52;83.72;97017.31;4824106;29;20078;-48
2022/01/11 09:12:32;;;;;;;27.30;14.25;;;;;;;2.49;83.53;97020.50;4823381;29;20541;-47
2022/01/11 09:15:00;;;;;;;29.63;14.85;;;;;;;2.44;83.85;97036.47;4809048;29;20050;-47
2022/01/11 09:17:27;;;;;;;26.60;14.13;;;;;;;2.20;83.25;97030.63;4836571;29;20069;-48
2022/01/11 09:19:55;;;;;;;27.30;13.85;;;;;;;2.13;84.55;97035.38;4842445;29;20058;-47
2022/01/11 09:22:23;;;;;;;26.70;13.60;;;;;;;2.64;82.82;97035.88;4830891;29;20420;-47
2022/01/11 09:24:51;;;;;;;25.10;13.32;;;;;;;1.43;86.60;97032.44;4824033;29;20046;-47
2022/01/11 09:27:23;;;;;;;26.85;13.10;;;;;;;1.63;87.35;97040.69;4824263;29;20565;-48
2022/01/11 09:29:51;;;;;;;26.60;13.10;;;;;;;1.57;87.90;97041.66;4827653;29;20069;-47
2022/01/11 09:32:20;;;;;;;23.90;13.23;;;;;;;1.23;87.90;97042.78;4823171;29;20520;-47
2022/01/11 09:34:49;;;;;;;25.48;13.20;;;;;;;1.12;90.03;97045.31;4823506;29;20066;-51
2022/01/11 09:37:23;;;;;;;23.17;12.95;;;;;;;1.55;88.14;97051.75;4838320;29;20079;-45
2022/01/11 09:39:51;;;;;;;24.63;13.57;;;;;;;1.90;86.24;97053.28;4838450;29;20482;-51
2022/01/11 09:42:24;;;;;;;22.77;11.98;;;;;;;1.91;86.17;97046.88;4836821;29;20148;-48
2022/01/11 09:44:51;;;;;;;23.60;11.93;;;;;;;2.26;84.41;97048.31;4826670;29;20054;-47
2022/01/11 09:47:19;;;;;;;22.55;12.75;;;;;;;1.99;84.97;97046.44;4839779;29;20049;-44
2022/01/11 09:49:48;;;;;;;26.05;13.90;;;;;;;1.82;85.45;97046.53;4842022;29;20479;-45
2022/01/11 09:52:16;;;;;;;24.83;13.15;;;;;;;2.17;84.24;97042.63;4832023;29;20054;-47
2022/01/11 09:54:47;;;;;;;23.35;12.88;;;;;;;1.94;84.50;97038.38;4823155;29;20060;-48
2022/01/11 09:57:16;;;;;;;24.58;12.93;;;;;;;2.02;85.84;97024.59;4823494;29;20046;-47
2022/01/11 09:59:44;;;;;;;21.30;12.05;;;;;;;1.96;86.12;97028.25;4823421;29;20451;-46
2022/01/11 10:02:44;;;;;;;23.25;12.25;;;;;;;2.59;83.11;97025.94;4838314;29;20050;-47
2022/01/11 10:05:38;;;;;;;20.73;11.20;;;;;;;2.23;84.25;97030.13;4842691;29;20050;-46
2022/01/11 10:08:27;;;;;;;20.65;11.52;;;;;;;2.64;82.07;97025.19;4841616;29;20520;-47
2022/01/11 10:10:59;;;;;;;19.17;10.30;;;;;;;1.90;84.07;97031.91;4838654;29;20048;-49
2022/01/11 10:13:38;;;;;;;20.73;10.57;;;;;;;1.60;83.65;97038.50;4822624;29;20082;-51
2022/01/11 10:16:25;;;;;;;19.42;10.20;;;;;;;2.09;83.15;97032.41;4808571;29;20067;-52
2022/01/11 10:18:57;;;;;;;19.35;10.48;;;;;;;2.18;82.01;97030.06;4823661;29;20054;-50
2022/01/11 10:21:45;;;;;;;21.30;10.07;;;;;;;2.51;80.85;97021.88;4837070;29;20043;-49
2022/01/11 10:24:35;;;;;;;18.40;10.13;;;;;;;2.18;81.92;97017.56;4841585;29;20147;-51
2022/01/11 10:27:19;;;;;;;17.52;10.18;;;;;;;1.60;82.84;97017.16;4817009;29;20081;-50
2022/01/11 10:29:53;;;;;;;20.25;11.80;;;;;;;2.23;82.38;97024.78;4823183;29;20064;-50
2022/01/11 10:32:35;;;;;;;19.65;11.40;;;;;;;1.88;83.51;97023.34;4829393;29;20133;-50
2022/01/11 10:35:29;;;;;;;20.25;10.98;;;;;;;2.45;81.01;97020.22;4823744;29;20149;-51
2022/01/11 10:38:30;;;;;;;18.42;10.40;;;;;;;2.30;81.01;97014.72;4839528;29;20053;-51
2022/01/11 10:41:05;;;;;;;19.25;10.95;;;;;;;2.54;80.85;97013.34;4823923;29;20046;-49
2022/01/11 10:43:42;;;;;;;20.35;10.73;;;;;;;2.74;79.05;97014.56;4824458;29;20096;-50
2022/01/11 10:46:13;;;;;;;20.92;12.00;;;;;;;1.84;80.43;97017.72;4825644;29;20065;-52
2022/01/11 10:48:44;;;;;;;18.77;10.55;;;;;;;2.18;81.46;97022.91;4822667;29;20047;-51
2022/01/11 10:51:14;;;;;;;19.15;10.15;;;;;;;2.51;80.03;97024.53;4823152;29;20489;-49
2022/01/11 10:53:49;;;;;;;19.73;11.68;;;;;;;2.56;79.33;97021.91;4825813;29;20126;-48
2022/01/11 10:56:19;;;;;;;19.85;10.90;;;;;;;2.56;79.62;97027.25;4826789;29;20054;-48
2022/01/11 10:59:10;;;;;;;18.10;10.30;;;;;;;2.60;79.11;97026.72;4841015;29;20416;-47
2022/01/11 11:01:47;;;;;;;20.33;10.98;;;;;;;3.09;77.57;97037.28;4826747;29;20046;-49
2022/01/11 11:04:32;;;;;;;19.67;11.80;;;;;;;2.55;77.19;97038.19;4823510;29;20050;-56
2022/01/11 11:07:12;;;;;;;16.00;9.45;;;;;;;3.16;77.18;97038.69;4822532;29;20050;-51
2022/01/11 11:09:48;;;;;;;15.77;9.25;;;;;;;3.31;74.98;97032.59;4825717;29;20133;-52
2022/01/11 11:12:20;;;;;;;15.25;8.60;;;;;;;3.14;76.15;97037.31;4821811;29;20061;-50
2022/01/11 11:15:05;;;;;;;15.13;8.85;;;;;;;3.08;76.10;97035.66;4833627;29;20061;-47
2022/01/11 11:17:39;;;;;;;13.32;8.48;;;;;;;3.28;76.53;97027.78;4840594;29;20125;-47
2022/01/11 11:20:24;;;;;;;11.23;7.10;;;;;;;3.10;75.14;97031.69;4822340;29;20516;-48
2022/01/11 11:22:52;;;;;;;11.48;6.85;;;;;;;2.94;75.79;97025.41;4822665;29;20509;-50
2022/01/11 11:25:19;;;;;;;15.45;7.85;;;;;;;3.05;72.40;97036.97;4823874;29;20244;-49
2022/01/11 11:27:46;;;;;;;17.63;7.47;;;;;;;3.19;73.18;97038.16;4823667;29;20053;-47
2022/01/11 11:30:14;;;;;;;15.75;9.10;;;;;;;3.25;74.52;97045.16;4830809;29;20426;-48
2022/01/11 11:32:42;;;;;;;13.90;8.48;;;;;;;3.70;73.22;97038.44;4821872;29;20148;-51
2022/01/11 11:35:09;;;;;;;12.55;7.18;;;;;;;3.60;72.07;97042.94;4823816;29;20110;-49
2022/01/11 11:37:38;;;;;;;10.80;6.90;;;;;;;3.68;71.71;97039.78;4823582;29;20053;-47
2022/01/11 11:40:11;;;;;;;9.48;6.40;;;;;;;3.73;70.95;97039.78;4823414;29;20046;-56
2022/01/11 11:42:39;;;;;;;9.05;5.68;;;;;;;3.51;68.75;97039.97;4822887;29;20050;-50
2022/01/11 11:45:37;;;;;;;10.82;6.70;;;;;;;3.57;71.12;97044.25;4833636;29;20050;-47
2022/01/11 11:48:09;;;;;;;15.75;7.35;;;;;;;2.70;71.22;97037.53;4817998;29;20046;-48